Time;durP1;ratioP1;P1;durP2;ratioP2;P2;SDS_P1;SDS_P2;PMS_P1;PMS_P2;Temp;Humidity;BMP_temperature;BMP_pressure;BME280_temperature;BME280_humidity;BME280_pressure;Samples;Min_cycle;Max_cycle;Signal;HPM_P1;HPM_P2
2022/01/29 00:02:18;;;;;;;4.71;4.31;;;;;;;18.18;44.26;102161.98;;;;-58
2022/01/29 00:05:18;;;;;;;3.93;3.63;;;;;;;18.16;44.21;102160.44;;;;-57
2022/01/29 00:08:18;;;;;;;4.19;3.20;;;;;;;18.15;44.27;102163.62;;;;-57
2022/01/29 00:11:18;;;;;;;2.94;2.74;;;;;;;18.13;44.21;102161.03;;;;-57
2022/01/29 00:14:17;;;;;;;3.05;2.75;;;;;;;18.12;44.23;102163.42;;;;-57
2022/01/29 00:17:18;;;;;;;3.50;2.73;;;;;;;18.10;44.25;102152.47;;;;-58
2022/01/29 00:20:18;;;;;;;3.20;2.89;;;;;;;18.08;44.24;102157.11;;;;-57
2022/01/29 00:23:17;;;;;;;3.30;2.87;;;;;;;18.06;44.25;102152.41;;;;-58
2022/01/29 00:26:21;;;;;;;2.78;2.58;;;;;;;18.05;44.33;102155.91;;;;-58
2022/01/29 00:29:21;;;;;;;2.94;2.68;;;;;;;18.03;44.27;102154.46;;;;-58
2022/01/29 00:32:17;;;;;;;3.74;3.09;;;;;;;18.01;44.29;102154.75;;;;-58
2022/01/29 00:35:18;;;;;;;3.13;2.83;;;;;;;17.99;44.25;102152.84;;;;-58
2022/01/29 00:38:18;;;;;;;2.80;2.60;;;;;;;17.97;44.31;102156.30;;;;-57
2022/01/29 00:41:18;;;;;;;3.38;2.80;;;;;;;17.96;44.30;102140.23;;;;-56
2022/01/29 00:44:18;;;;;;;3.22;2.92;;;;;;;17.94;44.33;102128.73;;;;-58
2022/01/29 00:47:18;;;;;;;3.13;2.83;;;;;;;17.93;44.31;102139.17;;;;-58
2022/01/29 00:50:18;;;;;;;2.81;2.61;;;;;;;17.91;44.35;102121.32;;;;-58
2022/01/29 00:53:17;;;;;;;3.16;2.59;;;;;;;17.90;44.35;102136.91;;;;-57
2022/01/29 00:56:18;;;;;;;2.69;2.49;;;;;;;17.88;44.38;102137.98;;;;-58
2022/01/29 00:59:18;;;;;;;2.95;2.69;;;;;;;17.86;44.38;102133.05;;;;-58
2022/01/29 01:02:18;;;;;;;3.04;2.77;;;;;;;17.86;44.39;102133.59;;;;-58
2022/01/29 01:05:18;;;;;;;3.29;2.92;;;;;;;17.83;44.37;102123.37;;;;-57
2022/01/29 01:08:18;;;;;;;3.27;2.85;;;;;;;17.82;44.41;102123.60;;;;-56
2022/01/29 01:11:18;;;;;;;3.07;2.77;;;;;;;17.81;44.47;102126.57;;;;-57
2022/01/29 01:14:18;;;;;;;3.21;2.83;;;;;;;17.79;44.45;102126.25;;;;-58
2022/01/29 01:17:18;;;;;;;2.79;2.59;;;;;;;17.78;44.46;102126.48;;;;-58
2022/01/29 01:20:18;;;;;;;2.97;2.67;;;;;;;17.77;44.49;102113.68;;;;-57
2022/01/29 01:23:17;;;;;;;2.94;2.65;;;;;;;17.75;44.44;102102.89;;;;-58
2022/01/29 01:26:18;;;;;;;3.18;2.88;;;;;;;17.75;44.51;102093.80;;;;-57
2022/01/29 01:29:18;;;;;;;2.87;2.60;;;;;;;17.73;44.44;102097.14;;;;-57
2022/01/29 01:32:18;;;;;;;2.71;2.51;;;;;;;17.72;44.50;102088.23;;;;-57
2022/01/29 01:35:22;;;;;;;2.70;2.50;;;;;;;17.71;44.49;102069.97;;;;-57
2022/01/29 01:38:21;;;;;;;2.93;2.64;;;;;;;17.70;44.46;102063.87;;;;-59
2022/01/29 01:41:23;;;;;;;3.27;2.84;;;;;;;17.68;44.45;102069.88;;;;-56
2022/01/29 01:44:18;;;;;;;2.99;2.69;;;;;;;17.67;44.53;102059.20;;;;-58
2022/01/29 01:47:17;;;;;;;3.07;2.74;;;;;;;17.66;44.50;102064.76;;;;-57
2022/01/29 01:50:18;;;;;;;3.15;2.79;;;;;;;17.65;44.50;102071.77;;;;-57
2022/01/29 01:53:17;;;;;;;3.01;2.76;;;;;;;17.63;44.54;102073.71;;;;-57
2022/01/29 01:56:18;;;;;;;2.89;2.69;;;;;;;17.61;44.54;102064.88;;;;-56
2022/01/29 01:59:18;;;;;;;3.27;2.86;;;;;;;17.60;44.54;102052.44;;;;-59
2022/01/29 02:02:18;;;;;;;2.79;2.59;;;;;;;17.58;44.58;102041.19;;;;-59
2022/01/29 02:05:18;;;;;;;2.98;2.67;;;;;;;17.58;44.55;102034.85;;;;-60
2022/01/29 02:08:18;;;;;;;3.19;2.75;;;;;;;17.57;44.55;102030.41;;;;-59
2022/01/29 02:11:18;;;;;;;2.93;2.66;;;;;;;17.55;44.60;102012.35;;;;-60
2022/01/29 02:14:18;;;;;;;2.87;2.67;;;;;;;17.54;44.61;102012.72;;;;-60
2022/01/29 02:17:18;;;;;;;2.90;2.69;;;;;;;17.53;44.58;102014.54;;;;-59
2022/01/29 02:20:18;;;;;;;2.95;2.67;;;;;;;17.51;44.59;102006.19;;;;-59
2022/01/29 02:23:18;;;;;;;3.21;2.69;;;;;;;17.50;44.65;101998.30;;;;-60
2022/01/29 02:26:18;;;;;;;2.77;2.57;;;;;;;17.50;44.58;102000.07;;;;-60
2022/01/29 02:29:19;;;;;;;3.12;2.81;;;;;;;17.48;44.62;101988.49;;;;-59
2022/01/29 02:32:17;;;;;;;2.72;2.52;;;;;;;17.47;44.60;101979.24;;;;-59
2022/01/29 02:35:18;;;;;;;2.78;2.58;;;;;;;17.47;44.64;101968.86;;;;-60
2022/01/29 02:38:18;;;;;;;2.87;2.61;;;;;;;17.46;44.64;101975.28;;;;-59
2022/01/29 02:41:19;;;;;;;2.99;2.71;;;;;;;17.46;44.63;101968.06;;;;-59
2022/01/29 02:44:20;;;;;;;2.89;2.53;;;;;;;17.43;44.65;101964.17;;;;-59
2022/01/29 02:47:27;;;;;;;2.83;2.61;;;;;;;17.42;44.62;101970.92;;;;-60
2022/01/29 02:50:18;;;;;;;2.80;2.60;;;;;;;17.42;44.64;101967.42;;;;-59
2022/01/29 02:53:18;;;;;;;2.81;2.56;;;;;;;17.41;44.64;101961.20;;;;-59
2022/01/29 02:56:18;;;;;;;2.60;2.40;;;;;;;17.40;44.67;101968.47;;;;-60
2022/01/29 02:59:18;;;;;;;2.68;2.48;;;;;;;17.39;44.66;101960.23;;;;-60
2022/01/29 03:02:17;;;;;;;2.94;2.64;;;;;;;17.38;44.68;101959.08;;;;-60
2022/01/29 03:05:18;;;;;;;2.82;2.62;;;;;;;17.37;44.66;101957.84;;;;-59
2022/01/29 03:08:18;;;;;;;2.62;2.42;;;;;;;17.36;44.61;101960.45;;;;-60
2022/01/29 03:11:19;;;;;;;2.73;2.53;;;;;;;17.35;44.62;101947.96;;;;-60
2022/01/29 03:14:18;;;;;;;2.99;2.70;;;;;;;17.33;44.67;101942.95;;;;-59
2022/01/29 03:17:17;;;;;;;2.73;2.52;;;;;;;17.33;44.73;101944.55;;;;-59
2022/01/29 03:20:18;;;;;;;2.53;2.33;;;;;;;17.31;44.65;101940.44;;;;-60
2022/01/29 03:23:18;;;;;;;2.57;2.37;;;;;;;17.31;44.70;101934.11;;;;-59
2022/01/29 03:26:17;;;;;;;2.56;2.36;;;;;;;17.30;44.68;101931.30;;;;-59
2022/01/29 03:29:18;;;;;;;2.65;2.45;;;;;;;17.29;44.69;101927.39;;;;-60
2022/01/29 03:32:17;;;;;;;2.45;2.25;;;;;;;17.28;44.73;101916.23;;;;-59
2022/01/29 03:35:19;;;;;;;2.60;2.40;;;;;;;17.28;44.74;101905.53;;;;-60
2022/01/29 03:38:18;;;;;;;2.76;2.56;;;;;;;17.26;44.71;101910.20;;;;-60
2022/01/29 03:41:18;;;;;;;2.69;2.49;;;;;;;17.25;44.74;101912.09;;;;-60
2022/01/29 03:44:18;;;;;;;2.69;2.47;;;;;;;17.25;44.75;101916.94;;;;-60
2022/01/29 03:47:17;;;;;;;2.62;2.42;;;;;;;17.24;44.67;101904.16;;;;-60
2022/01/29 03:50:17;;;;;;;2.67;2.32;;;;;;;17.23;44.76;101897.89;;;;-60
2022/01/29 03:53:18;;;;;;;2.65;2.45;;;;;;;17.23;44.76;101899.11;;;;-60
2022/01/29 03:56:18;;;;;;;2.33;2.10;;;;;;;17.21;44.75;101905.93;;;;-60
2022/01/29 03:59:18;;;;;;;2.81;2.56;;;;;;;17.20;44.73;101904.98;;;;-60
2022/01/29 04:02:18;;;;;;;2.62;2.41;;;;;;;17.19;44.72;101907.63;;;;-60
2022/01/29 04:05:17;;;;;;;2.69;2.49;;;;;;;17.19;44.79;101899.27;;;;-60
2022/01/29 04:08:18;;;;;;;2.40;2.20;;;;;;;17.17;44.76;101891.77;;;;-59
2022/01/29 04:11:18;;;;;;;2.37;2.17;;;;;;;17.18;44.74;101894.93;;;;-60
2022/01/29 04:14:19;;;;;;;2.55;2.35;;;;;;;17.16;44.77;101899.14;;;;-60
2022/01/29 04:17:18;;;;;;;2.60;2.40;;;;;;;17.16;44.77;101888.78;;;;-60
2022/01/29 04:20:18;;;;;;;2.55;2.35;;;;;;;17.14;44.83;101877.72;;;;-60
2022/01/29 04:23:18;;;;;;;2.51;2.31;;;;;;;17.14;44.80;101886.99;;;;-60
2022/01/29 04:26:17;;;;;;;2.52;2.32;;;;;;;17.13;44.83;101884.22;;;;-59
2022/01/29 04:29:18;;;;;;;2.53;2.33;;;;;;;17.12;44.83;101902.55;;;;-60
2022/01/29 04:32:22;;;;;;;2.40;2.20;;;;;;;17.12;44.87;101901.91;;;;-60
2022/01/29 04:35:17;;;;;;;2.50;2.30;;;;;;;17.11;44.85;101905.69;;;;-59
2022/01/29 04:38:18;;;;;;;2.43;2.23;;;;;;;17.10;44.83;101910.57;;;;-60
2022/01/29 04:41:17;;;;;;;2.59;2.39;;;;;;;17.09;44.80;101932.10;;;;-60
2022/01/29 04:44:18;;;;;;;2.44;2.24;;;;;;;17.09;44.86;101936.47;;;;-59
2022/01/29 04:47:18;;;;;;;2.61;2.35;;;;;;;17.09;44.86;101943.02;;;;-59
2022/01/29 04:50:17;;;;;;;2.49;2.29;;;;;;;17.08;44.81;101928.63;;;;-60
2022/01/29 04:53:18;;;;;;;2.64;2.44;;;;;;;17.06;44.88;101920.09;;;;-60
2022/01/29 04:56:17;;;;;;;2.61;2.41;;;;;;;17.05;44.85;101914.61;;;;-59
2022/01/29 04:59:17;;;;;;;2.50;2.30;;;;;;;17.04;44.83;101894.58;;;;-60
2022/01/29 05:02:18;;;;;;;2.41;2.21;;;;;;;17.04;44.87;101884.77;;;;-60
2022/01/29 05:05:17;;;;;;;2.34;2.14;;;;;;;17.03;44.85;101881.80;;;;-59
2022/01/29 05:08:18;;;;;;;2.42;2.22;;;;;;;17.02;44.85;101878.05;;;;-59
2022/01/29 05:11:18;;;;;;;2.42;2.22;;;;;;;17.01;44.89;101879.22;;;;-60
2022/01/29 05:14:28;;;;;;;2.51;2.31;;;;;;;17.01;44.86;101879.62;;;;-60
2022/01/29 05:27:18;;;;;;;2.59;2.39;;;;;;;16.98;44.83;101881.70;;;;-60
2022/01/29 05:30:18;;;;;;;2.57;2.37;;;;;;;16.97;44.94;101894.11;;;;-60
2022/01/29 05:33:18;;;;;;;2.60;2.40;;;;;;;16.96;44.89;101885.42;;;;-59
2022/01/29 05:36:17;;;;;;;2.58;2.38;;;;;;;16.96;44.95;101891.02;;;;-59
2022/01/29 05:39:18;;;;;;;2.29;2.09;;;;;;;16.96;44.89;101885.91;;;;-60
2022/01/29 05:42:17;;;;;;;2.55;2.35;;;;;;;16.95;44.85;101869.70;;;;-54
2022/01/29 05:45:18;;;;;;;2.60;2.40;;;;;;;16.95;44.93;101865.16;;;;-56
2022/01/29 05:48:18;;;;;;;2.60;2.40;;;;;;;16.96;44.94;101869.64;;;;-55
2022/01/29 05:51:17;;;;;;;2.35;2.15;;;;;;;16.96;44.91;101865.98;;;;-55
2022/01/29 05:54:18;;;;;;;2.59;2.36;;;;;;;16.96;44.91;101872.88;;;;-55
2022/01/29 05:57:17;;;;;;;2.47;2.21;;;;;;;16.98;44.91;101879.75;;;;-54
2022/01/29 06:00:18;;;;;;;2.26;2.07;;;;;;;16.99;44.90;101879.36;;;;-54
2022/01/29 06:03:18;;;;;;;2.50;2.30;;;;;;;17.00;44.86;101873.36;;;;-56
2022/01/29 06:06:17;;;;;;;2.60;2.28;;;;;;;17.01;44.94;101870.95;;;;-57
2022/01/29 06:09:17;;;;;;;2.52;2.32;;;;;;;17.04;44.86;101859.59;;;;-56
2022/01/29 06:12:17;;;;;;;2.47;2.27;;;;;;;17.08;44.80;101859.91;;;;-55
2022/01/29 06:15:17;;;;;;;5.72;3.06;;;;;;;17.01;43.88;101853.86;;;;-57
2022/01/29 06:18:19;;;;;;;3.95;3.41;;;;;;;16.90;43.45;101851.66;;;;-54
2022/01/29 06:21:17;;;;;;;5.66;3.38;;;;;;;16.83;43.22;101849.53;;;;-53
2022/01/29 06:24:17;;;;;;;6.65;3.86;;;;;;;16.78;43.13;101856.34;;;;-59
2022/01/29 06:27:18;;;;;;;5.71;3.95;;;;;;;16.67;42.46;101857.61;;;;-63
2022/01/29 06:30:17;;;;;;;5.79;3.97;;;;;;;16.66;42.30;101859.72;;;;-58
2022/01/29 06:33:18;;;;;;;5.31;4.12;;;;;;;16.62;42.28;101864.70;;;;-57
2022/01/29 06:36:17;;;;;;;5.04;3.89;;;;;;;16.62;42.20;101858.84;;;;-61
2022/01/29 06:39:18;;;;;;;7.27;3.87;;;;;;;16.62;42.34;101856.64;;;;-60
2022/01/29 06:42:18;;;;;;;5.65;3.72;;;;;;;16.63;42.32;101863.27;;;;-58
2022/01/29 06:45:17;;;;;;;6.45;3.88;;;;;;;16.71;42.74;101868.69;;;;-51
2022/01/29 06:48:18;;;;;;;3.89;3.25;;;;;;;16.78;43.18;101865.41;;;;-54
2022/01/29 06:51:17;;;;;;;4.30;3.37;;;;;;;16.87;43.33;101858.00;;;;-53
2022/01/29 06:54:17;;;;;;;3.89;3.13;;;;;;;16.93;43.49;101858.81;;;;-57
2022/01/29 06:57:18;;;;;;;5.95;3.37;;;;;;;16.99;43.60;101861.71;;;;-53
2022/01/29 07:00:17;;;;;;;3.07;2.51;;;;;;;17.02;43.68;101861.38;;;;-53
2022/01/29 07:03:17;;;;;;;3.45;2.63;;;;;;;17.07;43.75;101862.52;;;;-51
2022/01/29 07:06:17;;;;;;;2.93;2.44;;;;;;;17.10;43.87;101855.94;;;;-55
2022/01/29 07:09:17;;;;;;;3.97;2.47;;;;;;;17.11;43.77;101862.36;;;;-60
2022/01/29 07:12:18;;;;;;;3.74;2.28;;;;;;;17.11;43.73;101858.95;;;;-57
2022/01/29 07:15:17;;;;;;;2.75;2.27;;;;;;;17.12;43.77;101854.44;;;;-59
2022/01/29 07:18:18;;;;;;;4.62;2.71;;;;;;;17.12;43.76;101861.28;;;;-57
2022/01/29 07:21:18;;;;;;;2.41;2.21;;;;;;;17.12;43.80;101861.73;;;;-60
2022/01/29 07:24:17;;;;;;;4.09;2.22;;;;;;;17.13;43.82;101865.52;;;;-57
2022/01/29 07:27:18;;;;;;;2.53;2.23;;;;;;;17.13;43.77;101866.64;;;;-60
2022/01/29 07:30:17;;;;;;;3.83;2.25;;;;;;;17.12;43.82;101869.06;;;;-55
2022/01/29 07:33:18;;;;;;;2.41;2.21;;;;;;;17.13;43.80;101867.77;;;;-60
2022/01/29 07:36:18;;;;;;;2.55;2.11;;;;;;;17.13;43.85;101868.10;;;;-59
2022/01/29 07:39:17;;;;;;;2.34;2.14;;;;;;;17.13;43.84;101860.33;;;;-58
2022/01/29 07:42:18;;;;;;;2.65;2.20;;;;;;;17.13;43.90;101855.71;;;;-59
2022/01/29 07:45:18;;;;;;;2.56;2.13;;;;;;;17.13;43.89;101848.09;;;;-59
2022/01/29 07:48:17;;;;;;;2.79;2.06;;;;;;;17.13;43.92;101848.99;;;;-59
2022/01/29 07:51:18;;;;;;;1.98;1.83;;;;;;;17.14;43.92;101848.76;;;;-58
2022/01/29 07:54:17;;;;;;;2.93;2.19;;;;;;;17.14;43.96;101847.55;;;;-54
2022/01/29 07:57:18;;;;;;;2.29;2.09;;;;;;;17.14;43.97;101851.92;;;;-59
2022/01/29 08:00:17;;;;;;;2.39;2.19;;;;;;;17.14;43.96;101845.64;;;;-55
2022/01/29 08:03:18;;;;;;;2.33;2.10;;;;;;;17.14;43.96;101838.43;;;;-59
2022/01/29 08:06:18;;;;;;;2.45;2.17;;;;;;;17.14;43.97;101841.44;;;;-53
2022/01/29 08:09:17;;;;;;;2.21;2.01;;;;;;;17.14;44.03;101839.17;;;;-52
2022/01/29 08:12:17;;;;;;;2.10;1.89;;;;;;;17.14;44.04;101832.69;;;;-53
2022/01/29 08:15:17;;;;;;;2.57;2.03;;;;;;;17.14;44.07;101832.36;;;;-52
2022/01/29 08:18:17;;;;;;;2.29;2.09;;;;;;;17.15;44.03;101826.94;;;;-52
2022/01/29 08:21:18;;;;;;;2.30;2.10;;;;;;;17.14;44.04;101829.41;;;;-52
2022/01/29 08:24:17;;;;;;;2.23;2.03;;;;;;;17.14;44.04;101820.81;;;;-52
2022/01/29 08:27:17;;;;;;;2.49;1.90;;;;;;;17.14;44.04;101812.51;;;;-52
2022/01/29 08:30:17;;;;;;;2.35;1.97;;;;;;;17.14;44.06;101820.37;;;;-52
2022/01/29 08:33:19;;;;;;;2.20;1.87;;;;;;;17.15;44.10;101832.86;;;;-54
2022/01/29 08:36:18;;;;;;;2.08;1.89;;;;;;;17.14;44.05;101833.66;;;;-53
2022/01/29 08:39:17;;;;;;;2.21;2.01;;;;;;;17.14;44.07;101828.23;;;;-54
2022/01/29 08:42:17;;;;;;;2.29;2.09;;;;;;;17.14;44.07;101825.63;;;;-54
2022/01/29 08:45:18;;;;;;;2.01;1.82;;;;;;;17.13;44.12;101819.99;;;;-54
2022/01/29 08:48:17;;;;;;;2.27;1.97;;;;;;;17.14;44.11;101815.88;;;;-55
2022/01/29 08:51:18;;;;;;;2.18;1.98;;;;;;;17.14;44.31;101809.11;;;;-60
2022/01/29 08:54:17;;;;;;;2.29;2.01;;;;;;;17.18;44.81;101810.12;;;;-51
2022/01/29 08:57:17;;;;;;;2.41;2.21;;;;;;;17.21;45.47;101812.50;;;;-54
2022/01/29 09:00:18;;;;;;;2.44;1.80;;;;;;;17.27;45.65;101813.22;;;;-55
2022/01/29 09:03:17;;;;;;;2.02;1.85;;;;;;;17.33;45.66;101807.78;;;;-56
2022/01/29 09:06:18;;;;;;;2.28;2.08;;;;;;;17.40;45.20;101797.97;;;;-56
2022/01/29 09:09:23;;;;;;;3.48;2.17;;;;;;;17.49;45.45;101806.43;;;;-53
2022/01/29 09:12:17;;;;;;;2.89;2.00;;;;;;;17.57;45.39;101805.38;;;;-53
2022/01/29 09:15:18;;;;;;;4.83;2.10;;;;;;;17.66;45.29;101812.50;;;;-60
2022/01/29 09:18:17;;;;;;;3.28;1.90;;;;;;;17.71;45.18;101809.94;;;;-53
2022/01/29 09:21:17;;;;;;;4.30;2.56;;;;;;;17.73;44.72;101808.23;;;;-46
2022/01/29 09:24:17;;;;;;;3.15;2.56;;;;;;;17.75;44.95;101809.03;;;;-55
2022/01/29 09:27:17;;;;;;;2.87;2.40;;;;;;;17.83;45.00;101811.62;;;;-53
2022/01/29 09:30:18;;;;;;;3.57;2.17;;;;;;;17.92;45.07;101806.64;;;;-59
2022/01/29 09:33:17;;;;;;;3.51;2.22;;;;;;;18.00;45.04;101803.67;;;;-60
2022/01/29 09:36:18;;;;;;;2.49;2.25;;;;;;;18.06;45.00;101807.77;;;;-60
2022/01/29 09:39:17;;;;;;;2.36;2.15;;;;;;;18.10;44.95;101815.38;;;;-58
2022/01/29 09:42:17;;;;;;;3.07;2.12;;;;;;;18.17;44.97;101811.95;;;;-55
2022/01/29 09:45:18;;;;;;;2.39;2.19;;;;;;;18.21;44.96;101814.11;;;;-54
2022/01/29 09:48:17;;;;;;;2.37;2.17;;;;;;;18.25;45.04;101809.38;;;;-54
2022/01/29 09:51:17;;;;;;;2.79;2.19;;;;;;;18.31;44.98;101808.28;;;;-54
2022/01/29 09:54:17;;;;;;;2.53;2.08;;;;;;;18.34;44.89;101811.20;;;;-56
2022/01/29 09:57:17;;;;;;;2.90;2.33;;;;;;;18.40;45.03;101810.34;;;;-54
2022/01/29 10:00:18;;;;;;;2.33;2.11;;;;;;;18.45;45.02;101811.42;;;;-56
2022/01/29 10:03:19;;;;;;;2.41;2.21;;;;;;;18.46;44.87;101805.19;;;;-54
2022/01/29 10:06:19;;;;;;;2.52;2.23;;;;;;;18.48;44.52;101801.76;;;;-52
2022/01/29 10:09:17;;;;;;;3.19;2.08;;;;;;;18.50;44.85;101805.00;;;;-53
2022/01/29 10:12:17;;;;;;;2.65;1.98;;;;;;;18.53;44.90;101801.91;;;;-59
2022/01/29 10:15:18;;;;;;;2.91;2.11;;;;;;;18.54;44.89;101784.19;;;;-53
2022/01/29 10:18:17;;;;;;;2.60;2.07;;;;;;;18.59;45.06;101792.84;;;;-55
2022/01/29 10:21:17;;;;;;;2.49;2.11;;;;;;;18.62;45.00;101785.48;;;;-59
2022/01/29 10:24:18;;;;;;;2.25;2.00;;;;;;;18.66;44.89;101787.39;;;;-57
2022/01/29 10:27:17;;;;;;;2.30;2.09;;;;;;;18.71;44.99;101779.17;;;;-58
2022/01/29 10:30:17;;;;;;;2.21;2.00;;;;;;;18.73;44.90;101776.16;;;;-58
2022/01/29 10:33:17;;;;;;;2.32;2.12;;;;;;;18.79;44.25;101780.75;;;;-57
2022/01/29 10:36:18;;;;;;;3.95;2.29;;;;;;;18.74;44.29;101787.08;;;;-55
2022/01/29 10:39:17;;;;;;;3.16;2.17;;;;;;;18.74;44.14;101787.45;;;;-55
2022/01/29 10:42:17;;;;;;;3.96;2.45;;;;;;;18.78;44.34;101775.67;;;;-59
2022/01/29 10:45:18;;;;;;;4.47;2.39;;;;;;;18.75;44.18;101779.63;;;;-59
2022/01/29 10:48:17;;;;;;;7.47;2.90;;;;;;;18.80;44.23;101773.94;;;;-59
2022/01/29 10:51:17;;;;;;;4.07;2.50;;;;;;;18.84;44.30;101776.33;;;;-56
2022/01/29 10:54:17;;;;;;;4.98;2.63;;;;;;;18.86;44.03;101772.34;;;;-55
2022/01/29 10:57:18;;;;;;;3.21;2.41;;;;;;;18.88;44.02;101757.30;;;;-56
2022/01/29 11:00:18;;;;;;;6.97;2.50;;;;;;;18.91;44.18;101756.50;;;;-53
2022/01/29 11:03:17;;;;;;;5.57;2.71;;;;;;;18.95;44.32;101757.03;;;;-55
2022/01/29 11:06:20;;;;;;;4.63;2.30;;;;;;;18.99;44.45;101750.09;;;;-61
2022/01/29 11:09:17;;;;;;;2.67;2.31;;;;;;;19.01;44.46;101754.53;;;;-64
2022/01/29 11:12:17;;;;;;;3.62;2.37;;;;;;;19.04;44.49;101760.45;;;;-52
2022/01/29 11:15:18;;;;;;;6.81;2.20;;;;;;;19.05;44.51;101745.95;;;;-60
2022/01/29 11:18:17;;;;;;;3.49;2.13;;;;;;;19.08;44.39;101740.74;;;;-59
2022/01/29 11:21:18;;;;;;;2.73;2.01;;;;;;;19.11;44.42;101730.90;;;;-63
2022/01/29 11:24:17;;;;;;;2.43;2.06;;;;;;;19.13;44.56;101732.01;;;;-54
2022/01/29 11:27:17;;;;;;;2.49;2.15;;;;;;;19.16;44.54;101721.39;;;;-57
2022/01/29 11:30:17;;;;;;;4.37;1.96;;;;;;;19.17;44.51;101717.70;;;;-57
2022/01/29 11:33:17;;;;;;;2.67;2.05;;;;;;;19.21;44.48;101718.98;;;;-58
2022/01/29 11:36:17;;;;;;;2.55;2.11;;;;;;;19.23;44.48;101709.30;;;;-57
2022/01/29 11:39:17;;;;;;;2.99;2.22;;;;;;;19.26;44.45;101697.57;;;;-55
2022/01/29 11:42:17;;;;;;;3.70;2.01;;;;;;;19.26;44.50;101701.02;;;;-57
2022/01/29 11:45:17;;;;;;;2.46;2.12;;;;;;;19.29;44.45;101695.48;;;;-52
2022/01/29 11:48:18;;;;;;;3.32;2.03;;;;;;;19.29;44.39;101697.67;;;;-60
2022/01/29 11:51:17;;;;;;;2.68;2.13;;;;;;;19.29;44.17;101690.52;;;;-58
2022/01/29 11:54:18;;;;;;;2.23;2.01;;;;;;;19.30;44.29;101681.75;;;;-57
2022/01/29 11:57:17;;;;;;;2.93;2.04;;;;;;;19.29;44.14;101692.72;;;;-58
2022/01/29 12:00:17;;;;;;;3.51;2.24;;;;;;;19.29;44.01;101686.54;;;;-56
2022/01/29 12:03:17;;;;;;;2.65;2.10;;;;;;;19.29;44.13;101686.14;;;;-58
2022/01/29 12:06:22;;;;;;;4.00;1.94;;;;;;;19.29;43.98;101678.81;;;;-58
2022/01/29 12:09:18;;;;;;;3.22;1.93;;;;;;;19.30;44.08;101678.86;;;;-57
2022/01/29 12:12:17;;;;;;;3.47;2.07;;;;;;;19.34;44.04;101673.20;;;;-59
2022/01/29 12:15:17;;;;;;;2.39;1.97;;;;;;;19.36;44.05;101660.78;;;;-54
2022/01/29 12:19:17;;;;;;;2.19;1.99;;;;;;;19.37;43.79;101659.44;;;;-53
2022/01/29 12:22:17;;;;;;;3.25;2.03;;;;;;;19.39;43.91;101656.73;;;;-56
2022/01/29 12:25:17;;;;;;;2.75;2.01;;;;;;;19.37;43.79;101656.52;;;;-56
2022/01/29 12:28:17;;;;;;;2.71;1.90;;;;;;;19.36;43.88;101644.07;;;;-56
2022/01/29 12:31:18;;;;;;;2.13;1.79;;;;;;;19.35;43.80;101640.61;;;;-56
2022/01/29 12:34:17;;;;;;;3.15;1.85;;;;;;;19.35;43.89;101637.84;;;;-57
2022/01/29 12:37:18;;;;;;;2.13;1.93;;;;;;;19.35;43.89;101633.79;;;;-57
2022/01/29 12:40:20;;;;;;;2.34;1.91;;;;;;;19.35;43.87;101628.33;;;;-56
2022/01/29 12:43:17;;;;;;;1.90;1.80;;;;;;;19.34;43.82;101620.45;;;;-57
2022/01/29 12:46:17;;;;;;;2.26;1.91;;;;;;;19.34;43.83;101607.19;;;;-57
2022/01/29 12:49:17;;;;;;;2.59;1.84;;;;;;;19.34;43.82;101605.38;;;;-57
2022/01/29 12:52:17;;;;;;;2.93;1.94;;;;;;;19.33;43.81;101596.09;;;;-59
2022/01/29 12:55:17;;;;;;;2.47;1.83;;;;;;;19.33;43.83;101597.97;;;;-59
2022/01/29 12:58:17;;;;;;;1.94;1.71;;;;;;;19.33;43.80;101592.77;;;;-60
2022/01/29 13:01:18;;;;;;;2.13;1.91;;;;;;;19.34;43.81;101583.59;;;;-59
2022/01/29 13:04:18;;;;;;;2.05;1.85;;;;;;;19.35;43.74;101572.08;;;;-60
2022/01/29 13:07:17;;;;;;;2.57;1.77;;;;;;;19.35;43.73;101566.89;;;;-59
2022/01/29 13:10:17;;;;;;;2.33;1.83;;;;;;;19.35;43.67;101568.59;;;;-59
2022/01/29 13:13:17;;;;;;;1.95;1.75;;;;;;;19.36;43.75;101564.61;;;;-59
2022/01/29 13:16:17;;;;;;;4.13;1.80;;;;;;;19.37;43.78;101555.23;;;;-59
2022/01/29 13:19:17;;;;;;;2.17;1.91;;;;;;;19.38;43.76;101547.23;;;;-57
2022/01/29 13:22:18;;;;;;;2.58;1.80;;;;;;;19.39;43.74;101545.28;;;;-56
2022/01/29 13:25:17;;;;;;;2.34;1.81;;;;;;;19.42;43.75;101545.29;;;;-57
2022/01/29 13:28:17;;;;;;;2.07;1.77;;;;;;;19.42;43.74;101536.40;;;;-55
2022/01/29 13:31:17;;;;;;;2.02;1.80;;;;;;;19.43;43.74;101536.92;;;;-59
2022/01/29 13:34:17;;;;;;;3.21;1.78;;;;;;;19.44;43.68;101530.67;;;;-57
2022/01/29 13:37:17;;;;;;;2.75;1.69;;;;;;;19.48;43.79;101529.06;;;;-61
2022/01/29 13:40:20;;;;;;;2.79;1.89;;;;;;;19.52;44.00;101531.11;;;;-55
2022/01/29 13:43:17;;;;;;;3.29;1.86;;;;;;;19.57;44.03;101529.29;;;;-58
2022/01/29 13:46:17;;;;;;;2.07;1.87;;;;;;;19.57;44.00;101531.73;;;;-53
2022/01/29 13:49:17;;;;;;;2.89;1.98;;;;;;;19.53;43.27;101525.95;;;;-53
2022/01/29 13:52:19;;;;;;;3.49;2.09;;;;;;;19.50;43.32;101519.52;;;;-52
2022/01/29 13:55:17;;;;;;;8.60;2.41;;;;;;;19.50;43.39;101508.63;;;;-51
2022/01/29 13:58:17;;;;;;;6.88;2.05;;;;;;;19.58;43.56;101504.58;;;;-51
2022/01/29 14:01:17;;;;;;;5.07;2.11;;;;;;;19.62;43.60;101503.12;;;;-50
2022/01/29 14:04:17;;;;;;;4.48;2.11;;;;;;;19.66;43.68;101505.66;;;;-52
2022/01/29 14:07:22;;;;;;;3.94;1.91;;;;;;;19.70;43.70;101508.42;;;;-55
2022/01/29 14:10:18;;;;;;;6.01;2.05;;;;;;;19.74;43.86;101505.13;;;;-60
2022/01/29 14:13:17;;;;;;;2.63;2.05;;;;;;;19.74;43.79;101498.80;;;;-62
2022/01/29 14:16:17;;;;;;;8.69;1.95;;;;;;;19.76;43.91;101483.38;;;;-57
2022/01/29 14:19:18;;;;;;;4.27;1.99;;;;;;;19.78;43.91;101494.81;;;;-53
2022/01/29 14:22:17;;;;;;;2.96;1.70;;;;;;;19.81;43.93;101504.79;;;;-55
2022/01/29 14:25:18;;;;;;;2.78;1.93;;;;;;;19.84;43.88;101509.75;;;;-56
2022/01/29 14:28:19;;;;;;;2.74;1.96;;;;;;;19.86;43.78;101518.39;;;;-58
2022/01/29 14:31:17;;;;;;;3.21;1.97;;;;;;;19.80;43.42;101517.47;;;;-53
2022/01/29 14:34:17;;;;;;;6.41;2.07;;;;;;;19.81;43.77;101512.84;;;;-55
2022/01/29 14:37:17;;;;;;;2.90;1.90;;;;;;;19.81;43.82;101501.37;;;;-56
2022/01/29 14:40:17;;;;;;;2.09;1.79;;;;;;;19.82;43.81;101503.45;;;;-60
2022/01/29 14:43:18;;;;;;;2.42;1.90;;;;;;;19.83;43.82;101511.58;;;;-57
2022/01/29 14:46:17;;;;;;;5.58;2.07;;;;;;;19.84;43.73;101510.08;;;;-59
2022/01/29 14:49:18;;;;;;;2.03;1.83;;;;;;;19.87;43.81;101517.28;;;;-60
2022/01/29 14:52:18;;;;;;;2.53;2.03;;;;;;;19.86;43.74;101506.51;;;;-56
2022/01/29 14:55:17;;;;;;;3.14;1.93;;;;;;;19.88;43.73;101501.87;;;;-57
2022/01/29 14:58:17;;;;;;;3.81;1.91;;;;;;;19.90;43.74;101501.99;;;;-58
2022/01/29 15:01:18;;;;;;;2.43;2.05;;;;;;;19.94;43.74;101499.52;;;;-56
2022/01/29 15:04:17;;;;;;;2.26;1.97;;;;;;;19.96;43.83;101501.60;;;;-61
2022/01/29 15:07:17;;;;;;;2.47;1.92;;;;;;;19.98;43.87;101504.25;;;;-63
2022/01/29 15:10:17;;;;;;;2.36;2.11;;;;;;;19.98;43.67;101509.94;;;;-60
2022/01/29 15:13:17;;;;;;;4.45;1.92;;;;;;;19.99;43.62;101512.42;;;;-50
2022/01/29 15:16:17;;;;;;;3.83;1.90;;;;;;;20.03;43.72;101512.10;;;;-53
2022/01/29 15:19:17;;;;;;;2.13;1.92;;;;;;;20.05;43.70;101508.41;;;;-57
2022/01/29 15:22:17;;;;;;;3.28;1.92;;;;;;;20.08;43.70;101503.40;;;;-54
2022/01/29 15:25:17;;;;;;;2.53;1.81;;;;;;;20.10;43.75;101494.33;;;;-57
2022/01/29 15:28:17;;;;;;;2.00;1.79;;;;;;;20.09;43.77;101478.95;;;;-58
2022/01/29 15:31:17;;;;;;;2.83;1.81;;;;;;;20.13;43.75;101473.17;;;;-53
2022/01/29 15:34:17;;;;;;;2.92;1.99;;;;;;;20.14;43.66;101459.50;;;;-54
2022/01/29 15:37:19;;;;;;;2.95;1.82;;;;;;;20.16;43.70;101455.06;;;;-54
2022/01/29 15:40:17;;;;;;;2.13;1.69;;;;;;;20.18;43.72;101448.67;;;;-53
2022/01/29 15:43:17;;;;;;;2.12;1.92;;;;;;;20.19;43.77;101446.39;;;;-54
2022/01/29 15:46:17;;;;;;;1.94;1.74;;;;;;;20.20;43.76;101450.98;;;;-55
2022/01/29 15:49:17;;;;;;;1.85;1.74;;;;;;;20.24;43.72;101444.15;;;;-56
2022/01/29 15:52:17;;;;;;;3.17;1.82;;;;;;;20.23;43.73;101440.05;;;;-61
2022/01/29 15:55:17;;;;;;;1.92;1.78;;;;;;;20.23;43.75;101446.67;;;;-62
2022/01/29 15:58:21;;;;;;;1.99;1.83;;;;;;;20.25;43.76;101450.09;;;;-59
2022/01/29 16:01:17;;;;;;;2.47;1.78;;;;;;;20.25;43.76;101443.34;;;;-57
2022/01/29 16:04:17;;;;;;;2.57;1.83;;;;;;;20.26;43.79;101446.55;;;;-57
2022/01/29 16:07:17;;;;;;;2.56;1.70;;;;;;;20.25;43.82;101436.78;;;;-58
2022/01/29 16:10:19;;;;;;;3.45;1.97;;;;;;;20.25;43.80;101429.17;;;;-56
2022/01/29 16:13:17;;;;;;;2.92;1.74;;;;;;;20.24;43.72;101425.02;;;;-51
2022/01/29 16:16:17;;;;;;;1.98;1.75;;;;;;;20.24;43.79;101419.97;;;;-52
2022/01/29 16:19:17;;;;;;;3.99;1.69;;;;;;;20.22;43.75;101412.04;;;;-52
2022/01/29 16:22:17;;;;;;;1.77;1.67;;;;;;;20.23;43.70;101407.11;;;;-54
2022/01/29 16:25:17;;;;;;;1.88;1.78;;;;;;;20.22;43.74;101418.47;;;;-53
2022/01/29 16:28:20;;;;;;;2.27;1.93;;;;;;;20.25;43.76;101418.11;;;;-53
2022/01/29 16:31:17;;;;;;;5.73;1.93;;;;;;;20.25;43.65;101420.50;;;;-59
2022/01/29 16:34:17;;;;;;;2.74;1.83;;;;;;;20.22;43.55;101414.16;;;;-60
2022/01/29 16:37:17;;;;;;;1.92;1.73;;;;;;;20.21;43.53;101416.16;;;;-60
2022/01/29 16:40:17;;;;;;;2.07;1.87;;;;;;;20.20;43.56;101407.04;;;;-61
2022/01/29 16:43:17;;;;;;;2.89;1.88;;;;;;;20.19;43.57;101398.16;;;;-61
2022/01/29 16:46:17;;;;;;;1.70;1.60;;;;;;;20.18;43.53;101404.39;;;;-60
2022/01/29 16:49:18;;;;;;;2.19;1.65;;;;;;;20.18;43.48;101397.31;;;;-58
2022/01/29 16:52:18;;;;;;;1.79;1.69;;;;;;;20.18;43.55;101395.93;;;;-59
2022/01/29 16:55:17;;;;;;;1.95;1.79;;;;;;;20.17;43.51;101390.94;;;;-59